sensor_id;sensor_type;location;lat;lon;timestamp;P1;durP1;ratioP1;P2;durP2;ratioP2
46613;SDS011;32338;50.430;6.806;2023-12-20T00:01:32;3.10;;;0.70;;
46613;SDS011;32338;50.430;6.806;2023-12-20T00:03:58;1.95;;;0.60;;
46613;SDS011;32338;50.430;6.806;2023-12-20T00:06:25;0.68;;;0.65;;
46613;SDS011;32338;50.430;6.806;2023-12-20T00:08:52;0.73;;;0.68;;
46613;SDS011;32338;50.430;6.806;2023-12-20T00:11:20;0.63;;;0.60;;
46613;SDS011;32338;50.430;6.806;2023-12-20T00:13:46;0.90;;;0.68;;
46613;SDS011;32338;50.430;6.806;2023-12-20T00:16:13;0.60;;;0.50;;
46613;SDS011;32338;50.430;6.806;2023-12-20T00:18:39;0.95;;;0.70;;
46613;SDS011;32338;50.430;6.806;2023-12-20T00:21:06;0.70;;;0.55;;
46613;SDS011;32338;50.430;6.806;2023-12-20T00:23:32;1.10;;;0.60;;
46613;SDS011;32338;50.430;6.806;2023-12-20T00:25:59;0.65;;;0.65;;
46613;SDS011;32338;50.430;6.806;2023-12-20T00:28:27;1.42;;;0.90;;
46613;SDS011;32338;50.430;6.806;2023-12-20T00:30:53;0.80;;;0.60;;
46613;SDS011;32338;50.430;6.806;2023-12-20T00:33:20;1.85;;;1.08;;
46613;SDS011;32338;50.430;6.806;2023-12-20T00:35:47;1.30;;;1.15;;
46613;SDS011;32338;50.430;6.806;2023-12-20T00:38:14;1.10;;;0.90;;
46613;SDS011;32338;50.430;6.806;2023-12-20T00:40:40;1.83;;;1.20;;
46613;SDS011;32338;50.430;6.806;2023-12-20T00:43:07;1.25;;;1.15;;
46613;SDS011;32338;50.430;6.806;2023-12-20T00:45:35;1.48;;;1.05;;
46613;SDS011;32338;50.430;6.806;2023-12-20T00:48:01;1.05;;;0.93;;
46613;SDS011;32338;50.430;6.806;2023-12-20T00:50:28;1.30;;;1.10;;
46613;SDS011;32338;50.430;6.806;2023-12-20T00:52:55;1.33;;;1.23;;
46613;SDS011;32338;50.430;6.806;2023-12-20T00:55:21;1.23;;;1.08;;
46613;SDS011;32338;50.430;6.806;2023-12-20T00:57:48;1.38;;;1.23;;
46613;SDS011;32338;50.430;6.806;2023-12-20T01:00:15;1.30;;;1.20;;
46613;SDS011;32338;50.430;6.806;2023-12-20T01:02:43;1.15;;;1.05;;
46613;SDS011;32338;50.430;6.806;2023-12-20T01:05:11;1.25;;;1.10;;
46613;SDS011;32338;50.430;6.806;2023-12-20T01:07:38;1.35;;;0.90;;
46613;SDS011;32338;50.430;6.806;2023-12-20T01:10:05;1.23;;;1.10;;
46613;SDS011;32338;50.430;6.806;2023-12-20T01:12:31;1.08;;;0.98;;
46613;SDS011;32338;50.430;6.806;2023-12-20T01:14:58;1.60;;;1.00;;
46613;SDS011;32338;50.430;6.806;2023-12-20T01:17:25;1.10;;;1.00;;
46613;SDS011;32338;50.430;6.806;2023-12-20T01:19:53;1.30;;;1.10;;
46613;SDS011;32338;50.430;6.806;2023-12-20T01:22:19;1.40;;;1.30;;
46613;SDS011;32338;50.430;6.806;2023-12-20T01:24:46;1.13;;;1.00;;
46613;SDS011;32338;50.430;6.806;2023-12-20T01:27:12;1.33;;;1.23;;
46613;SDS011;32338;50.430;6.806;2023-12-20T01:29:39;2.03;;;1.58;;
46613;SDS011;32338;50.430;6.806;2023-12-20T01:32:06;2.50;;;1.38;;
46613;SDS011;32338;50.430;6.806;2023-12-20T01:34:33;1.60;;;1.50;;
46613;SDS011;32338;50.430;6.806;2023-12-20T01:37:00;2.28;;;1.27;;
46613;SDS011;32338;50.430;6.806;2023-12-20T01:39:27;3.20;;;1.38;;
46613;SDS011;32338;50.430;6.806;2023-12-20T01:41:54;1.20;;;1.10;;
46613;SDS011;32338;50.430;6.806;2023-12-20T01:44:20;0.98;;;0.88;;
46613;SDS011;32338;50.430;6.806;2023-12-20T01:46:47;1.30;;;1.15;;
46613;SDS011;32338;50.430;6.806;2023-12-20T01:49:14;1.15;;;1.05;;
46613;SDS011;32338;50.430;6.806;2023-12-20T01:51:41;1.08;;;0.98;;
46613;SDS011;32338;50.430;6.806;2023-12-20T01:54:09;0.85;;;0.85;;
46613;SDS011;32338;50.430;6.806;2023-12-20T01:56:36;0.90;;;0.90;;
46613;SDS011;32338;50.430;6.806;2023-12-20T01:59:03;1.58;;;1.02;;
46613;SDS011;32338;50.430;6.806;2023-12-20T02:01:30;1.70;;;1.38;;
46613;SDS011;32338;50.430;6.806;2023-12-20T02:03:57;2.70;;;2.30;;
46613;SDS011;32338;50.430;6.806;2023-12-20T02:06:25;10.68;;;4.90;;
46613;SDS011;32338;50.430;6.806;2023-12-20T02:08:56;5.97;;;4.68;;
46613;SDS011;32338;50.430;6.806;2023-12-20T02:11:28;7.63;;;4.43;;
46613;SDS011;32338;50.430;6.806;2023-12-20T02:13:54;9.80;;;3.40;;
46613;SDS011;32338;50.430;6.806;2023-12-20T02:16:21;7.13;;;3.30;;
46613;SDS011;32338;50.430;6.806;2023-12-20T02:18:48;5.10;;;2.08;;
46613;SDS011;32338;50.430;6.806;2023-12-20T02:21:15;5.25;;;2.28;;
46613;SDS011;32338;50.430;6.806;2023-12-20T02:23:43;6.70;;;2.08;;
46613;SDS011;32338;50.430;6.806;2023-12-20T02:26:09;9.18;;;2.10;;
46613;SDS011;32338;50.430;6.806;2023-12-20T02:28:38;10.40;;;2.00;;
46613;SDS011;32338;50.430;6.806;2023-12-20T02:31:04;4.78;;;1.80;;
46613;SDS011;32338;50.430;6.806;2023-12-20T02:33:31;5.47;;;1.95;;
46613;SDS011;32338;50.430;6.806;2023-12-20T02:35:57;7.78;;;1.73;;
46613;SDS011;32338;50.430;6.806;2023-12-20T02:38:24;7.78;;;1.65;;
46613;SDS011;32338;50.430;6.806;2023-12-20T02:40:52;9.25;;;1.75;;
46613;SDS011;32338;50.430;6.806;2023-12-20T02:43:18;12.10;;;2.03;;
46613;SDS011;32338;50.430;6.806;2023-12-20T02:45:45;11.50;;;1.80;;
46613;SDS011;32338;50.430;6.806;2023-12-20T02:48:12;8.02;;;1.70;;
46613;SDS011;32338;50.430;6.806;2023-12-20T02:50:38;10.40;;;1.88;;
46613;SDS011;32338;50.430;6.806;2023-12-20T02:53:05;12.98;;;2.15;;
46613;SDS011;32338;50.430;6.806;2023-12-20T02:55:31;6.90;;;1.85;;
46613;SDS011;32338;50.430;6.806;2023-12-20T02:57:59;8.60;;;1.90;;
46613;SDS011;32338;50.430;6.806;2023-12-20T03:00:26;6.53;;;1.60;;
46613;SDS011;32338;50.430;6.806;2023-12-20T03:02:52;8.75;;;1.42;;
46613;SDS011;32338;50.430;6.806;2023-12-20T03:05:19;7.20;;;1.52;;
46613;SDS011;32338;50.430;6.806;2023-12-20T03:07:46;6.10;;;1.70;;
46613;SDS011;32338;50.430;6.806;2023-12-20T03:10:12;6.47;;;1.63;;
46613;SDS011;32338;50.430;6.806;2023-12-20T03:12:39;7.57;;;1.52;;
46613;SDS011;32338;50.430;6.806;2023-12-20T03:15:07;9.30;;;1.75;;
46613;SDS011;32338;50.430;6.806;2023-12-20T03:17:34;4.70;;;1.33;;
46613;SDS011;32338;50.430;6.806;2023-12-20T03:20:01;10.30;;;1.55;;
46613;SDS011;32338;50.430;6.806;2023-12-20T03:22:28;7.20;;;1.52;;
46613;SDS011;32338;50.430;6.806;2023-12-20T03:24:54;6.18;;;1.60;;
46613;SDS011;32338;50.430;6.806;2023-12-20T03:27:21;7.15;;;1.42;;
46613;SDS011;32338;50.430;6.806;2023-12-20T03:29:47;6.60;;;1.92;;
46613;SDS011;32338;50.430;6.806;2023-12-20T03:32:15;5.03;;;1.55;;
46613;SDS011;32338;50.430;6.806;2023-12-20T03:34:42;9.40;;;1.80;;
46613;SDS011;32338;50.430;6.806;2023-12-20T03:37:08;9.15;;;1.65;;
46613;SDS011;32338;50.430;6.806;2023-12-20T03:39:35;10.68;;;1.67;;
46613;SDS011;32338;50.430;6.806;2023-12-20T03:42:02;9.20;;;1.50;;
46613;SDS011;32338;50.430;6.806;2023-12-20T03:44:29;6.38;;;1.50;;
46613;SDS011;32338;50.430;6.806;2023-12-20T03:46:55;7.22;;;1.75;;
46613;SDS011;32338;50.430;6.806;2023-12-20T03:49:23;4.65;;;1.42;;
46613;SDS011;32338;50.430;6.806;2023-12-20T03:51:50;11.60;;;1.70;;
46613;SDS011;32338;50.430;6.806;2023-12-20T03:54:16;6.53;;;1.30;;
46613;SDS011;32338;50.430;6.806;2023-12-20T03:56:43;4.68;;;1.15;;
46613;SDS011;32338;50.430;6.806;2023-12-20T03:59:10;8.10;;;1.63;;
46613;SDS011;32338;50.430;6.806;2023-12-20T04:01:36;6.72;;;1.55;;
46613;SDS011;32338;50.430;6.806;2023-12-20T04:04:03;3.65;;;1.35;;
46613;SDS011;32338;50.430;6.806;2023-12-20T04:06:31;10.13;;;1.75;;
46613;SDS011;32338;50.430;6.806;2023-12-20T04:08:57;3.15;;;1.10;;
46613;SDS011;32338;50.430;6.806;2023-12-20T04:11:24;2.83;;;1.38;;
46613;SDS011;32338;50.430;6.806;2023-12-20T04:13:50;8.85;;;1.52;;
46613;SDS011;32338;50.430;6.806;2023-12-20T04:16:17;6.13;;;1.23;;
46613;SDS011;32338;50.430;6.806;2023-12-20T04:18:44;8.18;;;1.20;;
46613;SDS011;32338;50.430;6.806;2023-12-20T04:21:10;7.10;;;1.40;;
46613;SDS011;32338;50.430;6.806;2023-12-20T04:23:38;5.68;;;1.27;;
46613;SDS011;32338;50.430;6.806;2023-12-20T04:26:05;6.72;;;1.40;;
46613;SDS011;32338;50.430;6.806;2023-12-20T04:28:31;9.48;;;1.45;;
46613;SDS011;32338;50.430;6.806;2023-12-20T04:30:58;8.88;;;1.80;;
46613;SDS011;32338;50.430;6.806;2023-12-20T04:33:24;5.65;;;1.50;;
46613;SDS011;32338;50.430;6.806;2023-12-20T04:35:51;8.07;;;1.27;;
46613;SDS011;32338;50.430;6.806;2023-12-20T04:38:18;3.72;;;1.30;;
46613;SDS011;32338;50.430;6.806;2023-12-20T04:40:46;15.05;;;1.55;;
46613;SDS011;32338;50.430;6.806;2023-12-20T04:43:13;8.23;;;1.40;;
46613;SDS011;32338;50.430;6.806;2023-12-20T04:45:39;7.40;;;1.27;;
46613;SDS011;32338;50.430;6.806;2023-12-20T04:48:06;5.00;;;1.05;;
46613;SDS011;32338;50.430;6.806;2023-12-20T04:50:33;7.20;;;1.10;;
46613;SDS011;32338;50.430;6.806;2023-12-20T04:53:00;7.43;;;1.20;;
46613;SDS011;32338;50.430;6.806;2023-12-20T04:55:26;4.13;;;1.10;;
46613;SDS011;32338;50.430;6.806;2023-12-20T04:57:54;5.78;;;1.50;;
46613;SDS011;32338;50.430;6.806;2023-12-20T05:00:21;8.65;;;1.23;;
46613;SDS011;32338;50.430;6.806;2023-12-20T05:02:48;5.22;;;1.33;;
46613;SDS011;32338;50.430;6.806;2023-12-20T05:05:14;9.40;;;1.38;;
46613;SDS011;32338;50.430;6.806;2023-12-20T05:07:42;9.48;;;1.88;;
46613;SDS011;32338;50.430;6.806;2023-12-20T05:10:09;4.47;;;1.10;;
46613;SDS011;32338;50.430;6.806;2023-12-20T05:12:36;5.35;;;1.40;;
46613;SDS011;32338;50.430;6.806;2023-12-20T05:15:04;8.75;;;1.33;;
46613;SDS011;32338;50.430;6.806;2023-12-20T05:17:32;11.13;;;1.27;;
46613;SDS011;32338;50.430;6.806;2023-12-20T05:19:58;8.43;;;1.50;;
46613;SDS011;32338;50.430;6.806;2023-12-20T05:22:25;12.30;;;1.17;;
46613;SDS011;32338;50.430;6.806;2023-12-20T05:24:52;8.88;;;1.33;;
46613;SDS011;32338;50.430;6.806;2023-12-20T05:27:19;10.13;;;1.98;;
46613;SDS011;32338;50.430;6.806;2023-12-20T05:29:45;8.85;;;1.60;;
46613;SDS011;32338;50.430;6.806;2023-12-20T05:32:13;7.28;;;1.23;;
46613;SDS011;32338;50.430;6.806;2023-12-20T05:34:40;9.55;;;1.38;;
46613;SDS011;32338;50.430;6.806;2023-12-20T05:37:06;8.13;;;1.58;;
46613;SDS011;32338;50.430;6.806;2023-12-20T05:39:33;16.10;;;1.90;;
46613;SDS011;32338;50.430;6.806;2023-12-20T05:42:00;7.80;;;1.95;;
46613;SDS011;32338;50.430;6.806;2023-12-20T05:44:26;7.93;;;1.25;;
46613;SDS011;32338;50.430;6.806;2023-12-20T05:46:53;10.20;;;1.50;;
46613;SDS011;32338;50.430;6.806;2023-12-20T05:49:21;9.18;;;2.58;;
46613;SDS011;32338;50.430;6.806;2023-12-20T05:51:47;11.18;;;1.58;;
46613;SDS011;32338;50.430;6.806;2023-12-20T05:54:15;6.20;;;1.10;;
46613;SDS011;32338;50.430;6.806;2023-12-20T05:56:41;8.00;;;1.25;;
46613;SDS011;32338;50.430;6.806;2023-12-20T05:59:08;13.48;;;2.35;;
46613;SDS011;32338;50.430;6.806;2023-12-20T06:01:34;7.88;;;1.63;;
46613;SDS011;32338;50.430;6.806;2023-12-20T06:04:01;4.72;;;1.27;;
46613;SDS011;32338;50.430;6.806;2023-12-20T06:06:29;6.22;;;1.45;;
46613;SDS011;32338;50.430;6.806;2023-12-20T06:08:56;10.60;;;1.45;;
46613;SDS011;32338;50.430;6.806;2023-12-20T06:11:23;5.75;;;1.27;;
46613;SDS011;32338;50.430;6.806;2023-12-20T06:13:50;16.48;;;1.40;;
46613;SDS011;32338;50.430;6.806;2023-12-20T06:16:17;9.98;;;1.27;;
46613;SDS011;32338;50.430;6.806;2023-12-20T06:18:44;5.88;;;0.88;;
46613;SDS011;32338;50.430;6.806;2023-12-20T06:21:11;12.88;;;1.30;;
46613;SDS011;32338;50.430;6.806;2023-12-20T06:23:40;8.48;;;1.10;;
46613;SDS011;32338;50.430;6.806;2023-12-20T06:26:06;11.00;;;1.13;;
46613;SDS011;32338;50.430;6.806;2023-12-20T06:28:33;9.98;;;1.80;;
46613;SDS011;32338;50.430;6.806;2023-12-20T06:31:00;11.73;;;1.80;;
46613;SDS011;32338;50.430;6.806;2023-12-20T06:33:26;13.43;;;2.25;;
46613;SDS011;32338;50.430;6.806;2023-12-20T06:35:54;9.05;;;1.52;;
46613;SDS011;32338;50.430;6.806;2023-12-20T06:38:21;11.25;;;1.30;;
46613;SDS011;32338;50.430;6.806;2023-12-20T06:40:48;5.80;;;1.33;;
46613;SDS011;32338;50.430;6.806;2023-12-20T06:43:15;9.75;;;2.03;;
46613;SDS011;32338;50.430;6.806;2023-12-20T06:45:41;9.80;;;1.85;;
46613;SDS011;32338;50.430;6.806;2023-12-20T06:48:08;13.90;;;2.10;;
46613;SDS011;32338;50.430;6.806;2023-12-20T06:50:37;11.45;;;1.70;;
46613;SDS011;32338;50.430;6.806;2023-12-20T06:53:05;6.93;;;1.60;;
46613;SDS011;32338;50.430;6.806;2023-12-20T06:55:32;7.95;;;2.05;;
46613;SDS011;32338;50.430;6.806;2023-12-20T06:58:00;8.73;;;1.80;;
46613;SDS011;32338;50.430;6.806;2023-12-20T07:00:27;35.00;;;9.88;;
46613;SDS011;32338;50.430;6.806;2023-12-20T07:02:54;20.60;;;6.63;;
46613;SDS011;32338;50.430;6.806;2023-12-20T07:05:20;26.95;;;8.10;;
46613;SDS011;32338;50.430;6.806;2023-12-20T07:07:47;10.65;;;3.28;;
46613;SDS011;32338;50.430;6.806;2023-12-20T07:10:14;11.68;;;2.10;;
46613;SDS011;32338;50.430;6.806;2023-12-20T07:12:40;8.95;;;1.50;;
46613;SDS011;32338;50.430;6.806;2023-12-20T07:15:09;7.35;;;1.70;;
46613;SDS011;32338;50.430;6.806;2023-12-20T07:17:35;10.07;;;1.58;;
46613;SDS011;32338;50.430;6.806;2023-12-20T07:20:02;8.05;;;1.50;;
46613;SDS011;32338;50.430;6.806;2023-12-20T07:22:29;13.93;;;1.88;;
46613;SDS011;32338;50.430;6.806;2023-12-20T07:24:57;12.98;;;1.58;;
46613;SDS011;32338;50.430;6.806;2023-12-20T07:27:23;12.13;;;1.95;;
46613;SDS011;32338;50.430;6.806;2023-12-20T07:29:50;13.32;;;2.30;;
46613;SDS011;32338;50.430;6.806;2023-12-20T07:32:18;14.30;;;1.88;;
46613;SDS011;32338;50.430;6.806;2023-12-20T07:34:45;8.30;;;1.58;;
46613;SDS011;32338;50.430;6.806;2023-12-20T07:37:12;5.80;;;1.52;;
46613;SDS011;32338;50.430;6.806;2023-12-20T07:39:39;5.53;;;1.80;;
46613;SDS011;32338;50.430;6.806;2023-12-20T07:42:06;8.60;;;1.42;;
46613;SDS011;32338;50.430;6.806;2023-12-20T07:44:32;6.00;;;1.25;;
46613;SDS011;32338;50.430;6.806;2023-12-20T07:47:00;9.10;;;1.65;;
46613;SDS011;32338;50.430;6.806;2023-12-20T07:49:28;9.70;;;1.42;;
46613;SDS011;32338;50.430;6.806;2023-12-20T07:51:56;9.68;;;1.42;;
46613;SDS011;32338;50.430;6.806;2023-12-20T07:54:22;10.10;;;1.58;;
46613;SDS011;32338;50.430;6.806;2023-12-20T07:56:49;11.43;;;2.17;;
46613;SDS011;32338;50.430;6.806;2023-12-20T07:59:15;7.00;;;1.73;;
46613;SDS011;32338;50.430;6.806;2023-12-20T08:01:42;7.50;;;1.50;;
46613;SDS011;32338;50.430;6.806;2023-12-20T08:04:09;15.38;;;1.60;;
46613;SDS011;32338;50.430;6.806;2023-12-20T08:06:36;10.45;;;1.92;;
46613;SDS011;32338;50.430;6.806;2023-12-20T08:09:03;10.30;;;1.67;;
46613;SDS011;32338;50.430;6.806;2023-12-20T08:11:30;11.93;;;1.67;;
46613;SDS011;32338;50.430;6.806;2023-12-20T08:13:57;12.18;;;1.80;;
46613;SDS011;32338;50.430;6.806;2023-12-20T08:16:23;13.60;;;1.73;;
46613;SDS011;32338;50.430;6.806;2023-12-20T08:18:50;9.20;;;1.75;;
46613;SDS011;32338;50.430;6.806;2023-12-20T08:21:17;18.60;;;2.00;;
46613;SDS011;32338;50.430;6.806;2023-12-20T08:23:46;11.63;;;1.30;;
46613;SDS011;32338;50.430;6.806;2023-12-20T08:26:14;7.50;;;1.35;;
46613;SDS011;32338;50.430;6.806;2023-12-20T08:28:45;11.35;;;1.40;;
46613;SDS011;32338;50.430;6.806;2023-12-20T08:31:13;6.38;;;1.30;;
46613;SDS011;32338;50.430;6.806;2023-12-20T08:33:40;7.18;;;1.85;;
46613;SDS011;32338;50.430;6.806;2023-12-20T08:36:06;8.13;;;1.23;;
46613;SDS011;32338;50.430;6.806;2023-12-20T08:38:33;11.27;;;1.73;;
46613;SDS011;32338;50.430;6.806;2023-12-20T08:41:01;6.18;;;1.52;;
46613;SDS011;32338;50.430;6.806;2023-12-20T08:43:30;14.32;;;1.80;;
46613;SDS011;32338;50.430;6.806;2023-12-20T08:45:56;7.05;;;1.50;;
46613;SDS011;32338;50.430;6.806;2023-12-20T08:48:23;6.55;;;1.85;;
46613;SDS011;32338;50.430;6.806;2023-12-20T08:50:49;11.15;;;1.67;;
46613;SDS011;32338;50.430;6.806;2023-12-20T08:53:17;11.45;;;2.10;;
46613;SDS011;32338;50.430;6.806;2023-12-20T08:55:44;7.03;;;1.40;;
46613;SDS011;32338;50.430;6.806;2023-12-20T08:58:12;11.02;;;1.92;;
46613;SDS011;32338;50.430;6.806;2023-12-20T09:00:38;16.75;;;2.10;;
46613;SDS011;32338;50.430;6.806;2023-12-20T09:03:05;6.32;;;1.38;;
46613;SDS011;32338;50.430;6.806;2023-12-20T09:05:31;9.25;;;1.65;;
46613;SDS011;32338;50.430;6.806;2023-12-20T09:07:58;14.63;;;1.92;;
46613;SDS011;32338;50.430;6.806;2023-12-20T09:10:25;10.40;;;1.70;;
46613;SDS011;32338;50.430;6.806;2023-12-20T09:12:51;11.93;;;1.88;;
46613;SDS011;32338;50.430;6.806;2023-12-20T09:15:22;10.10;;;1.70;;
46613;SDS011;32338;50.430;6.806;2023-12-20T09:17:49;7.85;;;1.58;;
46613;SDS011;32338;50.430;6.806;2023-12-20T09:20:15;7.88;;;1.55;;
46613;SDS011;32338;50.430;6.806;2023-12-20T09:22:42;7.80;;;1.65;;
46613;SDS011;32338;50.430;6.806;2023-12-20T09:25:09;10.77;;;2.08;;
46613;SDS011;32338;50.430;6.806;2023-12-20T09:27:36;16.45;;;2.63;;
46613;SDS011;32338;50.430;6.806;2023-12-20T09:30:03;14.85;;;1.80;;
46613;SDS011;32338;50.430;6.806;2023-12-20T09:32:32;12.95;;;2.85;;
46613;SDS011;32338;50.430;6.806;2023-12-20T09:34:59;11.75;;;1.80;;
46613;SDS011;32338;50.430;6.806;2023-12-20T09:37:25;8.23;;;1.83;;
46613;SDS011;32338;50.430;6.806;2023-12-20T09:39:53;13.90;;;2.33;;
46613;SDS011;32338;50.430;6.806;2023-12-20T09:42:21;7.07;;;1.63;;
46613;SDS011;32338;50.430;6.806;2023-12-20T09:44:54;19.65;;;3.17;;
46613;SDS011;32338;50.430;6.806;2023-12-20T09:47:22;14.68;;;1.98;;
46613;SDS011;32338;50.430;6.806;2023-12-20T09:49:51;14.90;;;2.00;;
46613;SDS011;32338;50.430;6.806;2023-12-20T09:52:18;7.53;;;1.30;;
46613;SDS011;32338;50.430;6.806;2023-12-20T09:54:46;9.15;;;1.50;;
46613;SDS011;32338;50.430;6.806;2023-12-20T09:57:15;5.90;;;1.83;;
46613;SDS011;32338;50.430;6.806;2023-12-20T09:59:42;9.95;;;1.20;;
46613;SDS011;32338;50.430;6.806;2023-12-20T10:02:09;9.40;;;1.50;;
46613;SDS011;32338;50.430;6.806;2023-12-20T10:04:40;11.80;;;1.83;;
46613;SDS011;32338;50.430;6.806;2023-12-20T10:07:13;6.22;;;1.55;;
46613;SDS011;32338;50.430;6.806;2023-12-20T10:09:39;5.32;;;1.45;;
46613;SDS011;32338;50.430;6.806;2023-12-20T10:12:08;12.65;;;1.50;;
46613;SDS011;32338;50.430;6.806;2023-12-20T10:14:34;9.75;;;1.95;;
46613;SDS011;32338;50.430;6.806;2023-12-20T10:17:02;11.48;;;2.22;;
46613;SDS011;32338;50.430;6.806;2023-12-20T10:19:29;8.73;;;1.80;;
46613;SDS011;32338;50.430;6.806;2023-12-20T10:21:55;10.43;;;2.08;;
46613;SDS011;32338;50.430;6.806;2023-12-20T10:24:23;11.43;;;2.20;;
46613;SDS011;32338;50.430;6.806;2023-12-20T10:26:53;9.93;;;2.00;;
46613;SDS011;32338;50.430;6.806;2023-12-20T10:29:30;13.70;;;1.70;;
46613;SDS011;32338;50.430;6.806;2023-12-20T10:31:58;8.35;;;1.98;;
46613;SDS011;32338;50.430;6.806;2023-12-20T10:34:24;7.53;;;2.25;;
46613;SDS011;32338;50.430;6.806;2023-12-20T10:36:51;10.38;;;2.30;;
46613;SDS011;32338;50.430;6.806;2023-12-20T10:39:18;10.93;;;2.08;;
46613;SDS011;32338;50.430;6.806;2023-12-20T10:41:47;8.98;;;1.92;;
46613;SDS011;32338;50.430;6.806;2023-12-20T10:44:14;12.25;;;2.35;;
46613;SDS011;32338;50.430;6.806;2023-12-20T10:46:41;9.27;;;2.22;;
46613;SDS011;32338;50.430;6.806;2023-12-20T10:49:15;15.80;;;2.80;;
46613;SDS011;32338;50.430;6.806;2023-12-20T10:51:43;5.53;;;1.80;;
46613;SDS011;32338;50.430;6.806;2023-12-20T10:54:12;13.20;;;2.08;;
46613;SDS011;32338;50.430;6.806;2023-12-20T10:56:38;8.63;;;2.00;;
46613;SDS011;32338;50.430;6.806;2023-12-20T10:59:07;18.20;;;2.35;;
46613;SDS011;32338;50.430;6.806;2023-12-20T11:01:37;10.80;;;2.00;;
46613;SDS011;32338;50.430;6.806;2023-12-20T11:04:06;10.32;;;2.13;;
46613;SDS011;32338;50.430;6.806;2023-12-20T11:06:42;8.23;;;2.20;;
46613;SDS011;32338;50.430;6.806;2023-12-20T11:09:14;11.15;;;2.60;;
46613;SDS011;32338;50.430;6.806;2023-12-20T11:11:56;10.85;;;2.85;;
46613;SDS011;32338;50.430;6.806;2023-12-20T11:14:29;15.75;;;2.58;;
46613;SDS011;32338;50.430;6.806;2023-12-20T11:17:06;11.85;;;3.40;;
46613;SDS011;32338;50.430;6.806;2023-12-20T11:19:35;12.45;;;3.42;;
46613;SDS011;32338;50.430;6.806;2023-12-20T11:22:03;13.60;;;2.85;;
46613;SDS011;32338;50.430;6.806;2023-12-20T11:24:30;12.27;;;3.00;;
46613;SDS011;32338;50.430;6.806;2023-12-20T11:26:57;11.60;;;3.08;;
46613;SDS011;32338;50.430;6.806;2023-12-20T11:29:31;11.15;;;2.90;;
46613;SDS011;32338;50.430;6.806;2023-12-20T11:31:57;12.45;;;3.40;;
46613;SDS011;32338;50.430;6.806;2023-12-20T11:34:26;14.05;;;3.20;;
46613;SDS011;32338;50.430;6.806;2023-12-20T11:36:57;13.48;;;3.30;;
46613;SDS011;32338;50.430;6.806;2023-12-20T11:39:25;9.55;;;3.03;;
46613;SDS011;32338;50.430;6.806;2023-12-20T11:41:51;12.40;;;3.67;;
46613;SDS011;32338;50.430;6.806;2023-12-20T11:44:20;15.57;;;3.38;;
46613;SDS011;32338;50.430;6.806;2023-12-20T11:46:47;8.75;;;3.00;;
46613;SDS011;32338;50.430;6.806;2023-12-20T11:49:15;13.98;;;3.20;;
46613;SDS011;32338;50.430;6.806;2023-12-20T11:51:41;12.80;;;4.32;;
46613;SDS011;32338;50.430;6.806;2023-12-20T11:54:08;13.68;;;3.33;;
46613;SDS011;32338;50.430;6.806;2023-12-20T11:56:36;10.88;;;3.40;;
46613;SDS011;32338;50.430;6.806;2023-12-20T11:59:02;12.18;;;3.20;;
46613;SDS011;32338;50.430;6.806;2023-12-20T12:01:29;10.15;;;4.00;;
46613;SDS011;32338;50.430;6.806;2023-12-20T12:04:05;10.63;;;3.53;;
46613;SDS011;32338;50.430;6.806;2023-12-20T12:06:32;16.45;;;4.20;;
46613;SDS011;32338;50.430;6.806;2023-12-20T12:08:58;11.95;;;4.28;;
46613;SDS011;32338;50.430;6.806;2023-12-20T12:11:25;13.52;;;3.75;;
46613;SDS011;32338;50.430;6.806;2023-12-20T12:13:52;9.13;;;3.22;;
46613;SDS011;32338;50.430;6.806;2023-12-20T12:16:19;14.05;;;3.90;;
46613;SDS011;32338;50.430;6.806;2023-12-20T12:18:46;12.68;;;3.45;;
46613;SDS011;32338;50.430;6.806;2023-12-20T12:21:22;11.23;;;2.97;;
46613;SDS011;32338;50.430;6.806;2023-12-20T12:23:48;12.88;;;3.70;;
46613;SDS011;32338;50.430;6.806;2023-12-20T12:26:15;14.52;;;3.80;;
46613;SDS011;32338;50.430;6.806;2023-12-20T12:28:41;8.57;;;3.10;;
46613;SDS011;32338;50.430;6.806;2023-12-20T12:31:09;14.95;;;3.35;;
46613;SDS011;32338;50.430;6.806;2023-12-20T12:33:40;12.63;;;3.17;;
46613;SDS011;32338;50.430;6.806;2023-12-20T12:36:07;13.55;;;3.53;;
46613;SDS011;32338;50.430;6.806;2023-12-20T12:38:35;11.38;;;2.90;;
46613;SDS011;32338;50.430;6.806;2023-12-20T12:41:01;9.65;;;3.35;;
46613;SDS011;32338;50.430;6.806;2023-12-20T12:43:28;7.47;;;3.28;;
46613;SDS011;32338;50.430;6.806;2023-12-20T12:45:54;16.52;;;5.38;;
46613;SDS011;32338;50.430;6.806;2023-12-20T12:48:21;14.50;;;3.72;;
46613;SDS011;32338;50.430;6.806;2023-12-20T12:50:48;9.43;;;2.58;;
46613;SDS011;32338;50.430;6.806;2023-12-20T12:53:17;7.78;;;2.40;;
46613;SDS011;32338;50.430;6.806;2023-12-20T12:55:44;12.98;;;2.10;;
46613;SDS011;32338;50.430;6.806;2023-12-20T12:58:11;13.93;;;2.90;;
46613;SDS011;32338;50.430;6.806;2023-12-20T13:00:38;7.97;;;2.03;;
46613;SDS011;32338;50.430;6.806;2023-12-20T13:03:04;6.03;;;1.73;;
46613;SDS011;32338;50.430;6.806;2023-12-20T13:05:31;6.82;;;1.98;;
46613;SDS011;32338;50.430;6.806;2023-12-20T13:07:57;6.95;;;2.17;;
46613;SDS011;32338;50.430;6.806;2023-12-20T13:10:24;7.50;;;1.67;;
46613;SDS011;32338;50.430;6.806;2023-12-20T13:12:52;7.47;;;1.77;;
46613;SDS011;32338;50.430;6.806;2023-12-20T13:15:18;6.35;;;1.58;;
46613;SDS011;32338;50.430;6.806;2023-12-20T13:17:45;7.25;;;1.27;;
46613;SDS011;32338;50.430;6.806;2023-12-20T13:20:12;3.17;;;1.00;;
46613;SDS011;32338;50.430;6.806;2023-12-20T13:22:39;4.68;;;1.23;;
46613;SDS011;32338;50.430;6.806;2023-12-20T13:25:05;4.43;;;1.67;;
46613;SDS011;32338;50.430;6.806;2023-12-20T13:27:32;4.85;;;1.05;;
46613;SDS011;32338;50.430;6.806;2023-12-20T13:30:00;5.95;;;0.90;;
46613;SDS011;32338;50.430;6.806;2023-12-20T13:32:28;6.47;;;1.30;;
46613;SDS011;32338;50.430;6.806;2023-12-20T13:34:54;6.55;;;1.60;;
46613;SDS011;32338;50.430;6.806;2023-12-20T13:37:21;4.95;;;0.90;;
46613;SDS011;32338;50.430;6.806;2023-12-20T13:39:47;4.40;;;1.30;;
46613;SDS011;32338;50.430;6.806;2023-12-20T13:42:14;4.07;;;0.80;;
46613;SDS011;32338;50.430;6.806;2023-12-20T13:44:40;3.65;;;1.30;;
46613;SDS011;32338;50.430;6.806;2023-12-20T13:47:08;13.45;;;4.20;;
46613;SDS011;32338;50.430;6.806;2023-12-20T13:49:35;10.38;;;1.95;;
46613;SDS011;32338;50.430;6.806;2023-12-20T13:52:01;4.07;;;0.95;;
46613;SDS011;32338;50.430;6.806;2023-12-20T13:54:29;3.53;;;0.95;;
46613;SDS011;32338;50.430;6.806;2023-12-20T13:56:55;5.00;;;0.90;;
46613;SDS011;32338;50.430;6.806;2023-12-20T13:59:23;3.88;;;1.10;;
46613;SDS011;32338;50.430;6.806;2023-12-20T14:01:49;5.38;;;1.10;;
46613;SDS011;32338;50.430;6.806;2023-12-20T14:04:17;2.50;;;0.90;;
46613;SDS011;32338;50.430;6.806;2023-12-20T14:06:44;3.53;;;0.95;;
46613;SDS011;32338;50.430;6.806;2023-12-20T14:09:10;4.35;;;0.82;;
46613;SDS011;32338;50.430;6.806;2023-12-20T14:11:38;1.60;;;0.82;;
46613;SDS011;32338;50.430;6.806;2023-12-20T14:14:06;5.80;;;0.60;;
46613;SDS011;32338;50.430;6.806;2023-12-20T14:16:32;2.75;;;0.80;;
46613;SDS011;32338;50.430;6.806;2023-12-20T14:18:59;5.05;;;0.73;;
46613;SDS011;32338;50.430;6.806;2023-12-20T14:21:29;3.22;;;0.77;;
46613;SDS011;32338;50.430;6.806;2023-12-20T14:23:56;1.38;;;0.65;;
46613;SDS011;32338;50.430;6.806;2023-12-20T14:26:23;2.33;;;0.85;;
46613;SDS011;32338;50.430;6.806;2023-12-20T14:28:50;4.97;;;0.98;;
46613;SDS011;32338;50.430;6.806;2023-12-20T14:31:18;4.55;;;0.65;;
46613;SDS011;32338;50.430;6.806;2023-12-20T14:33:45;3.40;;;0.80;;
46613;SDS011;32338;50.430;6.806;2023-12-20T14:36:11;3.95;;;1.10;;
46613;SDS011;32338;50.430;6.806;2023-12-20T14:38:39;1.92;;;0.80;;
46613;SDS011;32338;50.430;6.806;2023-12-20T14:41:06;3.92;;;0.75;;
46613;SDS011;32338;50.430;6.806;2023-12-20T14:43:33;2.83;;;0.80;;